sensor_id;sensor_type;location;lat;lon;timestamp;pressure;altitude;pressure_sealevel;temperature;humidity
75629;BME280;64213;46.452;16.994;2022-10-29T00:02:39;101150.69;;;11.53;100.00
75629;BME280;64213;46.452;16.994;2022-10-29T00:05:42;101145.41;;;11.53;100.00
75629;BME280;64213;46.452;16.994;2022-10-29T00:08:44;101140.09;;;11.53;100.00
75629;BME280;64213;46.452;16.994;2022-10-29T00:11:46;101140.25;;;11.50;100.00
75629;BME280;64213;46.452;16.994;2022-10-29T00:14:48;101139.56;;;11.46;100.00
75629;BME280;64213;46.452;16.994;2022-10-29T00:17:50;101142.03;;;11.49;100.00
75629;BME280;64213;46.452;16.994;2022-10-29T00:20:59;101136.97;;;11.45;100.00
75629;BME280;64213;46.452;16.994;2022-10-29T00:24:01;101126.38;;;11.45;100.00
75629;BME280;64213;46.452;16.994;2022-10-29T00:27:03;101129.97;;;11.44;100.00
75629;BME280;64213;46.452;16.994;2022-10-29T00:30:06;101132.59;;;11.44;100.00
75629;BME280;64213;46.452;16.994;2022-10-29T00:33:08;101138.56;;;11.49;100.00
75629;BME280;64213;46.452;16.994;2022-10-29T00:36:15;101142.91;;;11.50;100.00
75629;BME280;64213;46.452;16.994;2022-10-29T00:39:17;101141.91;;;11.52;100.00
75629;BME280;64213;46.452;16.994;2022-10-29T00:42:20;101138.37;;;11.52;100.00
75629;BME280;64213;46.452;16.994;2022-10-29T00:45:22;101141.97;;;11.51;100.00
75629;BME280;64213;46.452;16.994;2022-10-29T00:48:26;101138.37;;;11.52;100.00
75629;BME280;64213;46.452;16.994;2022-10-29T00:51:31;101132.22;;;11.51;100.00
75629;BME280;64213;46.452;16.994;2022-10-29T00:54:35;101126.06;;;11.51;100.00
75629;BME280;64213;46.452;16.994;2022-10-29T00:57:44;101133.25;;;11.49;100.00
75629;BME280;64213;46.452;16.994;2022-10-29T01:00:49;101131.44;;;11.49;100.00
75629;BME280;64213;46.452;16.994;2022-10-29T01:03:51;101140.94;;;11.53;100.00
75629;BME280;64213;46.452;16.994;2022-10-29T01:06:53;101133.84;;;11.54;100.00
75629;BME280;64213;46.452;16.994;2022-10-29T01:09:56;101138.22;;;11.55;100.00
75629;BME280;64213;46.452;16.994;2022-10-29T01:13:06;101142.59;;;11.56;100.00
75629;BME280;64213;46.452;16.994;2022-10-29T01:16:22;101130.25;;;11.55;100.00
75629;BME280;64213;46.452;16.994;2022-10-29T01:27:24;101106.25;;;11.58;100.00
75629;BME280;64213;46.452;16.994;2022-10-29T01:30:49;101109.06;;;11.55;100.00
75629;BME280;64213;46.452;16.994;2022-10-29T01:36:59;101107.19;;;11.57;100.00
75629;BME280;64213;46.452;16.994;2022-10-29T01:43:40;101113.28;;;11.59;100.00
75629;BME280;64213;46.452;16.994;2022-10-29T01:46:55;101106.09;;;11.61;100.00
75629;BME280;64213;46.452;16.994;2022-10-29T01:50:01;101101.59;;;11.63;100.00
75629;BME280;64213;46.452;16.994;2022-10-29T01:53:03;101106.97;;;11.61;100.00
75629;BME280;64213;46.452;16.994;2022-10-29T01:56:07;101087.69;;;11.58;100.00
75629;BME280;64213;46.452;16.994;2022-10-29T01:59:11;101087.53;;;11.61;100.00
75629;BME280;64213;46.452;16.994;2022-10-29T02:09:44;101082.34;;;11.59;100.00
75629;BME280;64213;46.452;16.994;2022-10-29T02:12:51;101081.50;;;11.59;100.00
75629;BME280;64213;46.452;16.994;2022-10-29T02:15:54;101087.66;;;11.59;100.00
75629;BME280;64213;46.452;16.994;2022-10-29T02:18:58;101083.19;;;11.60;100.00
75629;BME280;64213;46.452;16.994;2022-10-29T02:22:01;101084.03;;;11.60;100.00
75629;BME280;64213;46.452;16.994;2022-10-29T02:25:06;101081.66;;;11.56;100.00
75629;BME280;64213;46.452;16.994;2022-10-29T02:28:09;101077.34;;;11.53;100.00
75629;BME280;64213;46.452;16.994;2022-10-29T02:31:12;101090.75;;;11.50;100.00
75629;BME280;64213;46.452;16.994;2022-10-29T02:34:14;101087.16;;;11.51;100.00
75629;BME280;64213;46.452;16.994;2022-10-29T02:37:16;101082.81;;;11.50;100.00
75629;BME280;64213;46.452;16.994;2022-10-29T02:40:18;101080.94;;;11.52;100.00
75629;BME280;64213;46.452;16.994;2022-10-29T02:43:20;101080.25;;;11.49;100.00
75629;BME280;64213;46.452;16.994;2022-10-29T02:46:23;101071.69;;;11.44;100.00
75629;BME280;64213;46.452;16.994;2022-10-29T02:49:25;101076.97;;;11.44;100.00
75629;BME280;64213;46.452;16.994;2022-10-29T02:52:27;101062.78;;;11.45;100.00
75629;BME280;64213;46.452;16.994;2022-10-29T02:55:29;101069.81;;;11.46;100.00
75629;BME280;64213;46.452;16.994;2022-10-29T02:58:31;101075.16;;;11.44;100.00
75629;BME280;64213;46.452;16.994;2022-10-29T03:01:33;101077.03;;;11.42;100.00
75629;BME280;64213;46.452;16.994;2022-10-29T03:04:35;101070.44;;;11.33;100.00
75629;BME280;64213;46.452;16.994;2022-10-29T03:07:40;101070.50;;;11.32;100.00
75629;BME280;64213;46.452;16.994;2022-10-29T03:10:42;101075.09;;;11.28;100.00
75629;BME280;64213;46.452;16.994;2022-10-29T03:13:44;101075.09;;;11.28;100.00
75629;BME280;64213;46.452;16.994;2022-10-29T03:16:46;101081.34;;;11.27;100.00
75629;BME280;64213;46.452;16.994;2022-10-29T03:19:48;101076.03;;;11.27;100.00
75629;BME280;64213;46.452;16.994;2022-10-29T03:22:50;101069.00;;;11.26;100.00
75629;BME280;64213;46.452;16.994;2022-10-29T03:25:53;101076.03;;;11.27;100.00
75629;BME280;64213;46.452;16.994;2022-10-29T03:28:56;101063.72;;;11.26;100.00
75629;BME280;64213;46.452;16.994;2022-10-29T03:31:58;101069.19;;;11.23;100.00
75629;BME280;64213;46.452;16.994;2022-10-29T03:35:00;101070.25;;;11.19;100.00
75629;BME280;64213;46.452;16.994;2022-10-29T03:38:03;101071.41;;;11.13;100.00
75629;BME280;64213;46.452;16.994;2022-10-29T03:41:05;101065.34;;;11.11;100.00
75629;BME280;64213;46.452;16.994;2022-10-29T03:44:11;101064.56;;;11.09;100.00
75629;BME280;64213;46.452;16.994;2022-10-29T03:47:15;101064.66;;;11.08;100.00
75629;BME280;64213;46.452;16.994;2022-10-29T03:50:17;101067.59;;;11.02;100.00
75629;BME280;64213;46.452;16.994;2022-10-29T03:53:19;101065.81;;;11.02;100.00
75629;BME280;64213;46.452;16.994;2022-10-29T03:56:21;101064.16;;;11.00;100.00
75629;BME280;64213;46.452;16.994;2022-10-29T03:59:23;101064.16;;;11.00;100.00
75629;BME280;64213;46.452;16.994;2022-10-29T04:02:26;101066.81;;;11.00;100.00
75629;BME280;64213;46.452;16.994;2022-10-29T04:05:28;101061.50;;;11.00;100.00
75629;BME280;64213;46.452;16.994;2022-10-29T04:08:30;101062.47;;;10.99;100.00
75629;BME280;64213;46.452;16.994;2022-10-29T04:11:32;101062.38;;;11.00;100.00
75629;BME280;64213;46.452;16.994;2022-10-29T04:14:34;101062.59;;;10.96;100.00
75629;BME280;64213;46.452;16.994;2022-10-29T04:17:39;101063.47;;;10.96;100.00
75629;BME280;64213;46.452;16.994;2022-10-29T04:20:41;101059.97;;;10.96;100.00
75629;BME280;64213;46.452;16.994;2022-10-29T04:24:04;101063.41;;;10.98;100.00
75629;BME280;64213;46.452;16.994;2022-10-29T04:27:26;101066.81;;;11.00;100.00
75629;BME280;64213;46.452;16.994;2022-10-29T04:30:49;101065.25;;;10.96;100.00
75629;BME280;64213;46.452;16.994;2022-10-29T04:33:52;101059.00;;;10.97;100.00
75629;BME280;64213;46.452;16.994;2022-10-29T04:36:54;101059.97;;;10.96;100.00
75629;BME280;64213;46.452;16.994;2022-10-29T04:39:56;101052.62;;;11.01;100.00
75629;BME280;64213;46.452;16.994;2022-10-29T04:42:58;101068.69;;;10.98;100.00
75629;BME280;64213;46.452;16.994;2022-10-29T04:46:01;101063.59;;;10.93;100.00
75629;BME280;64213;46.452;16.994;2022-10-29T04:49:03;101074.44;;;10.88;100.00
75629;BME280;64213;46.452;16.994;2022-10-29T04:52:05;101071.56;;;10.93;100.00
75629;BME280;64213;46.452;16.994;2022-10-29T04:55:07;101078.78;;;10.89;100.00
75629;BME280;64213;46.452;16.994;2022-10-29T04:58:15;101080.44;;;10.92;100.00
75629;BME280;64213;46.452;16.994;2022-10-29T05:01:18;101072.41;;;10.93;100.00
75629;BME280;64213;46.452;16.994;2022-10-29T05:04:20;101075.00;;;10.95;100.00
75629;BME280;64213;46.452;16.994;2022-10-29T05:07:22;101079.28;;;10.98;100.00
75629;BME280;64213;46.452;16.994;2022-10-29T05:10:26;101080.34;;;10.93;100.00
75629;BME280;64213;46.452;16.994;2022-10-29T05:13:29;101072.62;;;10.89;100.00
75629;BME280;64213;46.452;16.994;2022-10-29T05:16:31;101081.34;;;10.91;100.00
75629;BME280;64213;46.452;16.994;2022-10-29T05:19:33;101086.59;;;10.92;100.00
75629;BME280;64213;46.452;16.994;2022-10-29T05:22:35;101085.72;;;10.92;100.00
75629;BME280;64213;46.452;16.994;2022-10-29T05:25:38;101087.38;;;10.94;100.00
75629;BME280;64213;46.452;16.994;2022-10-29T05:28:41;101085.72;;;10.92;100.00
75629;BME280;64213;46.452;16.994;2022-10-29T05:31:43;101092.72;;;10.93;100.00
75629;BME280;64213;46.452;16.994;2022-10-29T05:34:45;101098.13;;;10.91;100.00
75629;BME280;64213;46.452;16.994;2022-10-29T05:37:51;101084.00;;;10.91;100.00
75629;BME280;64213;46.452;16.994;2022-10-29T05:40:56;101091.16;;;10.89;100.00
75629;BME280;64213;46.452;16.994;2022-10-29T05:43:59;101086.78;;;10.88;100.00
75629;BME280;64213;46.452;16.994;2022-10-29T05:47:01;101090.47;;;10.85;100.00
75629;BME280;64213;46.452;16.994;2022-10-29T05:50:03;101088.72;;;10.84;100.00
75629;BME280;64213;46.452;16.994;2022-10-29T05:53:08;101085.22;;;10.84;100.00
75629;BME280;64213;46.452;16.994;2022-10-29T05:56:10;101088.88;;;10.81;100.00
75629;BME280;64213;46.452;16.994;2022-10-29T05:59:12;101081.88;;;10.80;100.00
75629;BME280;64213;46.452;16.994;2022-10-29T06:02:14;101074.72;;;10.82;100.00
75629;BME280;64213;46.452;16.994;2022-10-29T06:05:16;101080.03;;;10.82;100.00
75629;BME280;64213;46.452;16.994;2022-10-29T06:08:19;101081.88;;;10.80;100.00
75629;BME280;64213;46.452;16.994;2022-10-29T06:11:21;101082.16;;;10.74;100.00
75629;BME280;64213;46.452;16.994;2022-10-29T06:14:23;101083.88;;;10.75;100.00
75629;BME280;64213;46.452;16.994;2022-10-29T06:17:25;101085.63;;;10.76;100.00
75629;BME280;64213;46.452;16.994;2022-10-29T06:20:28;101089.91;;;10.79;100.00
75629;BME280;64213;46.452;16.994;2022-10-29T06:23:29;101093.41;;;10.79;100.00
75629;BME280;64213;46.452;16.994;2022-10-29T06:26:31;101097.63;;;10.83;100.00
75629;BME280;64213;46.452;16.994;2022-10-29T06:29:34;101095.91;;;10.82;100.00
75629;BME280;64213;46.452;16.994;2022-10-29T06:32:36;101091.31;;;10.86;100.00
75629;BME280;64213;46.452;16.994;2022-10-29T06:35:38;101100.91;;;10.88;100.00
75629;BME280;64213;46.452;16.994;2022-10-29T06:38:40;101099.03;;;10.90;100.00
75629;BME280;64213;46.452;16.994;2022-10-29T06:41:42;101099.88;;;10.91;100.00
75629;BME280;64213;46.452;16.994;2022-10-29T06:44:44;101102.63;;;10.89;100.00
75629;BME280;64213;46.452;16.994;2022-10-29T06:47:46;101108.84;;;10.88;100.00
75629;BME280;64213;46.452;16.994;2022-10-29T06:50:49;101105.25;;;10.89;100.00
75629;BME280;64213;46.452;16.994;2022-10-29T06:53:51;101106.12;;;10.90;100.00
75629;BME280;64213;46.452;16.994;2022-10-29T06:56:55;101098.41;;;10.85;100.00
75629;BME280;64213;46.452;16.994;2022-10-29T06:59:57;101093.66;;;10.92;100.00
75629;BME280;64213;46.452;16.994;2022-10-29T07:03:06;101097.16;;;10.92;100.00
75629;BME280;64213;46.452;16.994;2022-10-29T07:06:09;101102.94;;;11.01;100.00
75629;BME280;64213;46.452;16.994;2022-10-29T07:09:11;101103.66;;;11.04;100.00
75629;BME280;64213;46.452;16.994;2022-10-29T07:12:13;101104.56;;;11.03;100.00
75629;BME280;64213;46.452;16.994;2022-10-29T07:15:15;101105.38;;;11.05;100.00
75629;BME280;64213;46.452;16.994;2022-10-29T07:18:18;101098.13;;;11.09;100.00
75629;BME280;64213;46.452;16.994;2022-10-29T07:21:20;101098.28;;;11.06;100.00
75629;BME280;64213;46.452;16.994;2022-10-29T07:24:22;101109.09;;;11.01;100.00
75629;BME280;64213;46.452;16.994;2022-10-29T07:27:24;101119.31;;;11.09;100.00
75629;BME280;64213;46.452;16.994;2022-10-29T07:30:26;101124.91;;;11.03;100.00
75629;BME280;64213;46.452;16.994;2022-10-29T07:33:28;101122.97;;;11.06;100.00
75629;BME280;64213;46.452;16.994;2022-10-29T07:36:31;101121.31;;;11.04;100.00
75629;BME280;64213;46.452;16.994;2022-10-29T07:39:33;101110.53;;;11.08;100.00
75629;BME280;64213;46.452;16.994;2022-10-29T07:42:35;101108.06;;;11.04;100.00
75629;BME280;64213;46.452;16.994;2022-10-29T07:45:38;101104.37;;;11.08;100.00
75629;BME280;64213;46.452;16.994;2022-10-29T07:48:40;101104.06;;;11.14;100.00
75629;BME280;64213;46.452;16.994;2022-10-29T07:51:42;101094.03;;;11.21;100.00
75629;BME280;64213;46.452;16.994;2022-10-29T07:54:44;101116.78;;;11.25;100.00
75629;BME280;64213;46.452;16.994;2022-10-29T07:57:46;101103.38;;;11.28;100.00
75629;BME280;64213;46.452;16.994;2022-10-29T08:00:48;101108.53;;;11.31;100.00
75629;BME280;64213;46.452;16.994;2022-10-29T08:03:51;101102.91;;;11.37;100.00
75629;BME280;64213;46.452;16.994;2022-10-29T08:06:53;101111.72;;;11.37;100.00
75629;BME280;64213;46.452;16.994;2022-10-29T08:09:55;101110.78;;;11.38;100.00
75629;BME280;64213;46.452;16.994;2022-10-29T08:12:59;101108.75;;;11.44;100.00
75629;BME280;64213;46.452;16.994;2022-10-29T08:16:02;101101.91;;;11.39;100.00
75629;BME280;64213;46.452;16.994;2022-10-29T08:19:05;101104.00;;;11.50;100.00
75629;BME280;64213;46.452;16.994;2022-10-29T08:22:07;101108.22;;;11.54;100.00
75629;BME280;64213;46.452;16.994;2022-10-29T08:25:10;101113.59;;;11.53;100.00
75629;BME280;64213;46.452;16.994;2022-10-29T08:28:13;101125.91;;;11.54;100.00
75629;BME280;64213;46.452;16.994;2022-10-29T08:31:16;101117.59;;;11.61;100.00
75629;BME280;64213;46.452;16.994;2022-10-29T08:34:20;101111.25;;;11.64;100.00
75629;BME280;64213;46.452;16.994;2022-10-29T08:37:22;101124.28;;;11.69;100.00
75629;BME280;64213;46.452;16.994;2022-10-29T08:46:49;101136.03;;;11.80;100.00
75629;BME280;64213;46.452;16.994;2022-10-29T08:50:16;101142.97;;;11.83;100.00
75629;BME280;64213;46.452;16.994;2022-10-29T08:53:32;101135.25;;;11.78;100.00
75629;BME280;64213;46.452;16.994;2022-10-29T08:56:37;101135.84;;;11.85;100.00
75629;BME280;64213;46.452;16.994;2022-10-29T08:59:48;101144.31;;;11.74;100.00
75629;BME280;64213;46.452;16.994;2022-10-29T09:02:56;101142.97;;;11.83;100.00
75629;BME280;64213;46.452;16.994;2022-10-29T09:06:10;101151.50;;;11.90;100.00
75629;BME280;64213;46.452;16.994;2022-10-29T09:09:28;101142.53;;;11.92;100.00
75629;BME280;64213;46.452;16.994;2022-10-29T09:12:59;101137.22;;;11.92;99.92
75629;BME280;64213;46.452;16.994;2022-10-29T09:16:37;101136.22;;;11.95;99.90
75629;BME280;64213;46.452;16.994;2022-10-29T09:26:30;101130.69;;;12.15;99.01
75629;BME280;64213;46.452;16.994;2022-10-29T09:29:54;101120.34;;;12.10;99.00
75629;BME280;64213;46.452;16.994;2022-10-29T09:33:03;101122.75;;;12.15;98.68
75629;BME280;64213;46.452;16.994;2022-10-29T09:36:17;101123.22;;;12.23;98.70
75629;BME280;64213;46.452;16.994;2022-10-29T09:39:36;101119.44;;;12.27;98.58
75629;BME280;64213;46.452;16.994;2022-10-29T09:42:40;101121.59;;;12.37;98.41
75629;BME280;64213;46.452;16.994;2022-10-29T09:52:32;101111.59;;;12.42;98.04
75629;BME280;64213;46.452;16.994;2022-10-29T09:55:40;101110.66;;;12.43;98.22
75629;BME280;64213;46.452;16.994;2022-10-29T09:58:46;101105.09;;;12.47;98.15
75629;BME280;64213;46.452;16.994;2022-10-29T10:01:50;101094.63;;;12.44;98.02
75629;BME280;64213;46.452;16.994;2022-10-29T10:05:23;101090.28;;;12.59;97.71
75629;BME280;64213;46.452;16.994;2022-10-29T10:08:21;101082.31;;;12.59;97.70
75629;BME280;64213;46.452;16.994;2022-10-29T10:11:23;101076.59;;;12.67;97.37
75629;BME280;64213;46.452;16.994;2022-10-29T10:14:28;101075.81;;;12.65;97.54
75629;BME280;64213;46.452;16.994;2022-10-29T10:21:13;101072.03;;;12.69;97.54
75629;BME280;64213;46.452;16.994;2022-10-29T10:24:36;101074.34;;;12.75;97.26
75629;BME280;64213;46.452;16.994;2022-10-29T10:27:38;101075.53;;;12.85;97.08
75629;BME280;64213;46.452;16.994;2022-10-29T10:30:40;101075.03;;;12.94;96.79
75629;BME280;64213;46.452;16.994;2022-10-29T10:33:53;101068.44;;;12.86;96.67
75629;BME280;64213;46.452;16.994;2022-10-29T10:37:17;101066.72;;;12.85;96.99
75629;BME280;64213;46.452;16.994;2022-10-29T10:40:23;101074.50;;;12.88;96.94
75629;BME280;64213;46.452;16.994;2022-10-29T10:43:25;101066.03;;;12.97;96.63
75629;BME280;64213;46.452;16.994;2022-10-29T10:46:33;101070.13;;;13.02;96.33
75629;BME280;64213;46.452;16.994;2022-10-29T10:49:37;101061.56;;;12.97;96.48
75629;BME280;64213;46.452;16.994;2022-10-29T10:52:39;101052.94;;;12.94;96.53
75629;BME280;64213;46.452;16.994;2022-10-29T10:55:47;101049.81;;;13.01;96.25
75629;BME280;64213;46.452;16.994;2022-10-29T10:59:00;101055.44;;;13.11;95.67
75629;BME280;64213;46.452;16.994;2022-10-29T11:02:05;101049.59;;;13.20;95.43
75629;BME280;64213;46.452;16.994;2022-10-29T11:05:18;101052.69;;;13.29;95.21
75629;BME280;64213;46.452;16.994;2022-10-29T11:11:49;101045.53;;;13.45;93.92
75629;BME280;64213;46.452;16.994;2022-10-29T11:15:55;101045.94;;;13.53;92.97
75629;BME280;64213;46.452;16.994;2022-10-29T11:18:54;101040.44;;;13.56;93.05
75629;BME280;64213;46.452;16.994;2022-10-29T11:25:20;101027.59;;;13.77;91.83
75629;BME280;64213;46.452;16.994;2022-10-29T11:28:49;101023.25;;;13.76;92.22
75629;BME280;64213;46.452;16.994;2022-10-29T11:32:03;101016.97;;;13.77;91.84
75629;BME280;64213;46.452;16.994;2022-10-29T11:35:12;101015.38;;;13.89;91.44
75629;BME280;64213;46.452;16.994;2022-10-29T11:38:21;101010.69;;;13.78;91.47
75629;BME280;64213;46.452;16.994;2022-10-29T11:41:47;100998.72;;;14.00;90.97
75629;BME280;64213;46.452;16.994;2022-10-29T11:44:51;101004.91;;;14.14;90.44
75629;BME280;64213;46.452;16.994;2022-10-29T11:57:48;101000.75;;;14.52;87.58
75629;BME280;64213;46.452;16.994;2022-10-29T12:04:22;100997.44;;;14.34;88.24
75629;BME280;64213;46.452;16.994;2022-10-29T12:07:58;101001.59;;;14.79;87.58
75629;BME280;64213;46.452;16.994;2022-10-29T12:11:35;101007.47;;;14.57;87.00
75629;BME280;64213;46.452;16.994;2022-10-29T12:14:50;101004.38;;;14.78;87.28
75629;BME280;64213;46.452;16.994;2022-10-29T12:18:20;101007.72;;;14.94;86.61
75629;BME280;64213;46.452;16.994;2022-10-29T12:32:07;100969.41;;;15.61;83.62
75629;BME280;64213;46.452;16.994;2022-10-29T12:38:37;100953.00;;;15.79;82.37
75629;BME280;64213;46.452;16.994;2022-10-29T12:41:47;100952.56;;;16.46;80.42
75629;BME280;64213;46.452;16.994;2022-10-29T12:48:07;100943.06;;;18.48;73.79
75629;BME280;64213;46.452;16.994;2022-10-29T12:51:34;100941.63;;;18.32;71.88
75629;BME280;64213;46.452;16.994;2022-10-29T12:54:44;100937.47;;;18.83;70.19
75629;BME280;64213;46.452;16.994;2022-10-29T12:57:47;100935.56;;;18.95;69.26
75629;BME280;64213;46.452;16.994;2022-10-29T13:00:49;100935.09;;;18.14;72.39
75629;BME280;64213;46.452;16.994;2022-10-29T13:06:57;100934.00;;;18.17;72.70
75629;BME280;64213;46.452;16.994;2022-10-29T13:13:35;100925.91;;;18.39;72.47
75629;BME280;64213;46.452;16.994;2022-10-29T13:16:39;100919.69;;;18.71;69.98
75629;BME280;64213;46.452;16.994;2022-10-29T13:22:59;100924.25;;;18.27;71.71
75629;BME280;64213;46.452;16.994;2022-10-29T13:26:07;100924.78;;;18.09;73.07
75629;BME280;64213;46.452;16.994;2022-10-29T13:29:10;100913.47;;;17.61;74.00
75629;BME280;64213;46.452;16.994;2022-10-29T13:32:35;100905.38;;;16.93;76.57
75629;BME280;64213;46.452;16.994;2022-10-29T13:35:38;100905.50;;;16.33;78.51
75629;BME280;64213;46.452;16.994;2022-10-29T13:38:59;100905.34;;;16.23;78.99
75629;BME280;64213;46.452;16.994;2022-10-29T13:42:10;100904.25;;;16.25;79.49
75629;BME280;64213;46.452;16.994;2022-10-29T13:45:14;100909.13;;;16.56;78.70
75629;BME280;64213;46.452;16.994;2022-10-29T13:48:24;100901.31;;;16.41;79.10
75629;BME280;64213;46.452;16.994;2022-10-29T13:51:37;100882.28;;;15.35;83.13
75629;BME280;64213;46.452;16.994;2022-10-29T13:54:53;100888.34;;;15.25;83.12
75629;BME280;64213;46.452;16.994;2022-10-29T13:58:11;100890.56;;;14.80;84.76
75629;BME280;64213;46.452;16.994;2022-10-29T14:01:17;100883.75;;;14.76;85.34
75629;BME280;64213;46.452;16.994;2022-10-29T14:04:26;100884.09;;;14.84;85.42
75629;BME280;64213;46.452;16.994;2022-10-29T14:10:48;100884.72;;;14.75;85.53
75629;BME280;64213;46.452;16.994;2022-10-29T14:13:54;100902.50;;;14.61;86.01
75629;BME280;64213;46.452;16.994;2022-10-29T14:17:09;100903.44;;;14.33;86.86
75629;BME280;64213;46.452;16.994;2022-10-29T14:20:29;100899.69;;;14.23;87.30
75629;BME280;64213;46.452;16.994;2022-10-29T14:23:32;100905.53;;;14.28;87.62
75629;BME280;64213;46.452;16.994;2022-10-29T14:26:39;100906.38;;;14.29;87.49
75629;BME280;64213;46.452;16.994;2022-10-29T14:29:42;100909.59;;;14.34;87.98
75629;BME280;64213;46.452;16.994;2022-10-29T14:32:44;100909.41;;;14.37;87.34
75629;BME280;64213;46.452;16.994;2022-10-29T14:35:47;100908.03;;;14.44;87.41
75629;BME280;64213;46.452;16.994;2022-10-29T14:38:52;100898.00;;;14.35;87.49
75629;BME280;64213;46.452;16.994;2022-10-29T14:41:55;100897.00;;;14.23;87.97
75629;BME280;64213;46.452;16.994;2022-10-29T14:45:02;100895.81;;;14.14;88.18
75629;BME280;64213;46.452;16.994;2022-10-29T14:48:10;100894.06;;;14.13;88.97
75629;BME280;64213;46.452;16.994;2022-10-29T14:51:20;100895.22;;;14.09;88.65
75629;BME280;64213;46.452;16.994;2022-10-29T14:54:26;100895.09;;;13.98;89.68
75629;BME280;64213;46.452;16.994;2022-10-29T14:57:32;100894.31;;;13.96;89.55
75629;BME280;64213;46.452;16.994;2022-10-29T15:00:37;100894.91;;;14.01;89.79
75629;BME280;64213;46.452;16.994;2022-10-29T15:03:39;100897.94;;;13.95;89.88
75629;BME280;64213;46.452;16.994;2022-10-29T15:06:41;100897.56;;;13.87;90.28
75629;BME280;64213;46.452;16.994;2022-10-29T15:09:47;100894.06;;;13.86;90.62
75629;BME280;64213;46.452;16.994;2022-10-29T15:12:51;100892.56;;;13.82;90.80
75629;BME280;64213;46.452;16.994;2022-10-29T15:16:05;100896.47;;;13.77;91.32
75629;BME280;64213;46.452;16.994;2022-10-29T15:19:11;100894.37;;;13.67;91.69
75629;BME280;64213;46.452;16.994;2022-10-29T15:22:24;100898.19;;;13.63;92.15
75629;BME280;64213;46.452;16.994;2022-10-29T15:25:37;100887.47;;;13.51;92.98
75629;BME280;64213;46.452;16.994;2022-10-29T15:28:42;100881.13;;;13.39;93.27
75629;BME280;64213;46.452;16.994;2022-10-29T15:31:45;100872.66;;;13.32;94.11
75629;BME280;64213;46.452;16.994;2022-10-29T15:34:52;100860.22;;;13.18;94.40
75629;BME280;64213;46.452;16.994;2022-10-29T15:37:55;100854.69;;;13.07;95.33
75629;BME280;64213;46.452;16.994;2022-10-29T15:41:32;100851.69;;;12.99;96.01
75629;BME280;64213;46.452;16.994;2022-10-29T15:44:37;100864.97;;;12.99;95.71
75629;BME280;64213;46.452;16.994;2022-10-29T15:47:45;100870.44;;;12.96;95.93
75629;BME280;64213;46.452;16.994;2022-10-29T15:50:49;100873.19;;;12.94;95.83
75629;BME280;64213;46.452;16.994;2022-10-29T15:53:51;100873.47;;;12.90;96.17
75629;BME280;64213;46.452;16.994;2022-10-29T15:56:55;100874.59;;;12.86;96.11
75629;BME280;64213;46.452;16.994;2022-10-29T16:00:03;100871.44;;;12.79;96.25
75629;BME280;64213;46.452;16.994;2022-10-29T16:06:14;100875.72;;;12.67;96.63
75629;BME280;64213;46.452;16.994;2022-10-29T16:09:18;100885.13;;;12.57;96.93
75629;BME280;64213;46.452;16.994;2022-10-29T16:12:21;100884.47;;;12.53;97.22
75629;BME280;64213;46.452;16.994;2022-10-29T16:15:23;100881.13;;;12.50;97.43
75629;BME280;64213;46.452;16.994;2022-10-29T16:18:25;100874.97;;;12.49;97.81
75629;BME280;64213;46.452;16.994;2022-10-29T16:21:27;100876.59;;;12.52;98.14
75629;BME280;64213;46.452;16.994;2022-10-29T16:24:30;100876.59;;;12.52;98.05
75629;BME280;64213;46.452;16.994;2022-10-29T16:27:34;100879.81;;;12.57;98.13
75629;BME280;64213;46.452;16.994;2022-10-29T16:30:36;100867.50;;;12.56;98.01
75629;BME280;64213;46.452;16.994;2022-10-29T16:33:43;100877.37;;;12.54;98.09
75629;BME280;64213;46.452;16.994;2022-10-29T16:36:46;100878.91;;;12.58;97.90
75629;BME280;64213;46.452;16.994;2022-10-29T16:39:48;100889.34;;;12.61;97.76
75629;BME280;64213;46.452;16.994;2022-10-29T16:42:50;100875.97;;;12.63;97.66
75629;BME280;64213;46.452;16.994;2022-10-29T16:57:49;100886.50;;;12.64;97.68
75629;BME280;64213;46.452;16.994;2022-10-29T17:01:02;100883.25;;;12.59;97.68
75629;BME280;64213;46.452;16.994;2022-10-29T17:04:05;100868.66;;;12.52;97.90
75629;BME280;64213;46.452;16.994;2022-10-29T17:07:08;100867.13;;;12.48;98.42
75629;BME280;64213;46.452;16.994;2022-10-29T17:10:11;100871.84;;;12.43;98.46
75629;BME280;64213;46.452;16.994;2022-10-29T17:13:14;100865.84;;;12.39;98.58
75629;BME280;64213;46.452;16.994;2022-10-29T17:16:16;100867.72;;;12.37;98.68
75629;BME280;64213;46.452;16.994;2022-10-29T17:19:20;100863.38;;;12.36;98.83
75629;BME280;64213;46.452;16.994;2022-10-29T17:22:22;100853.22;;;12.28;99.00
75629;BME280;64213;46.452;16.994;2022-10-29T17:25:25;100860.59;;;12.23;99.06
75629;BME280;64213;46.452;16.994;2022-10-29T17:28:27;100857.44;;;12.17;98.94
75629;BME280;64213;46.452;16.994;2022-10-29T17:31:30;100862.06;;;12.13;99.06
75629;BME280;64213;46.452;16.994;2022-10-29T17:34:33;100854.28;;;12.10;98.96
75629;BME280;64213;46.452;16.994;2022-10-29T17:37:35;100844.88;;;12.04;99.06
75629;BME280;64213;46.452;16.994;2022-10-29T17:40:38;100831.91;;;12.00;99.24
75629;BME280;64213;46.452;16.994;2022-10-29T17:43:41;100837.19;;;12.00;99.15
75629;BME280;64213;46.452;16.994;2022-10-29T17:46:43;100836.81;;;12.06;99.34